Terminal Aerodrome Forecast
Issued by NWS Bismarck, ND

Home | Current Version | Previous Version | Graphics & Text | Print | Product List | Glossary On
Versions: 1 2 3 4 5 6 7 8 9 10 11 12 13 14 15 16 17 18 19 20 21 22 23 24
000
FTUS43 KBIS 072331
TAFBIS
TAF
KBIS 072331Z 0800/0824 29022G31KT 6SM BLSN SCT035 OVC090
     FM080200 30020G29KT 6SM BLSN OVC035
     FM080600 30014G24KT P6SM BKN035
     FM081400 30009KT P6SM BKN020
     FM082000 30009KT P6SM SCT035=

USA.gov is the U.S. government's official web portal to all federal, state and local government web resources and services.